Terminal Aerodrome Forecast
Issued by NWS North Platte, NE

Home | Current Version | Previous Version | Text Only | Print | Product List | Glossary On
Versions: 1 2 3 4 5 6 7 8 9 10 11 12 13 14 15 16
000
FTUS43 KLBF 230000 AAA
TAFLBF
TAF AMD
KLBF 230058Z 2301/2324 13014KT P6SM OVC100
      TEMPO 2301/2302 5SM -TSRA BKN060CB
     FM230200 13010KT P6SM -SHRA OVC070
     FM230700 16010KT P6SM -SHRA SCT020 OVC040
     FM231200 17009KT P6SM OVC050
     FM231600 20009G15KT P6SM BKN100
     FM232000 20011G18KT P6SM SCT250=

USA.gov is the U.S. government's official web portal to all federal, state and local government web resources and services.